Time;durP1;ratioP1;P1;durP2;ratioP2;P2;SDS_P1;SDS_P2;PMS_P1;PMS_P2;Temp;Humidity;BMP_temperature;BMP_pressure;BME280_temperature;BME280_humidity;BME280_pressure;Samples;Min_cycle;Max_cycle;Signal;HPM_P1;HPM_P2
2023/12/14 00:00:50;;;;;;;3.53;2.40;;;16.40;69.10;;;;;;5066755;28;20454;-83
2023/12/14 00:03:30;;;;;;;2.70;2.23;;;16.40;69.50;;;;;;5075468;28;20469;-82
2023/12/14 00:06:07;;;;;;;7.23;2.40;;;16.40;69.00;;;;;;5076618;28;20445;-82
2023/12/14 00:08:36;;;;;;;2.50;2.30;;;16.40;68.90;;;;;;5069466;28;20484;-83
2023/12/14 00:11:05;;;;;;;2.43;2.17;;;16.40;68.90;;;;;;5060917;28;20431;-84
2023/12/14 00:13:33;;;;;;;2.50;2.30;;;16.40;68.60;;;;;;5056668;28;20477;-83
2023/12/14 00:16:03;;;;;;;2.50;2.30;;;16.40;69.10;;;;;;5076648;28;20429;-85
2023/12/14 00:18:34;;;;;;;3.10;2.60;;;16.40;69.10;;;;;;5064418;28;20429;-84
2023/12/14 00:21:08;;;;;;;2.80;2.60;;;16.20;68.40;;;;;;5067649;28;20217;-86
2023/12/14 00:23:36;;;;;;;2.30;2.20;;;16.10;69.80;;;;;;5070389;28;20477;-84
2023/12/14 00:26:04;;;;;;;2.50;2.40;;;16.10;69.90;;;;;;5082409;22;20486;-76
2023/12/14 00:28:32;;;;;;;2.87;2.50;;;16.20;69.70;;;;;;5042837;28;20442;-75
2023/12/14 00:31:01;;;;;;;2.10;2.00;;;16.20;69.30;;;;;;5046059;28;20447;-76
2023/12/14 00:33:29;;;;;;;2.27;2.17;;;16.20;69.10;;;;;;5043809;28;20478;-76
2023/12/14 00:35:58;;;;;;;2.60;2.40;;;16.20;69.00;;;;;;5052440;28;20447;-76
2023/12/14 00:38:27;;;;;;;4.50;2.47;;;16.20;68.70;;;;;;5038003;28;20435;-76
2023/12/14 00:40:55;;;;;;;2.73;2.53;;;16.20;69.00;;;;;;5039773;28;20494;-76
2023/12/14 00:43:23;;;;;;;2.67;2.47;;;16.20;68.80;;;;;;5041354;28;20455;-76
2023/12/14 00:45:52;;;;;;;2.77;2.50;;;16.20;68.80;;;;;;5051951;28;20494;-76
2023/12/14 00:48:20;;;;;;;3.20;2.30;;;16.20;68.70;;;;;;5051773;28;20457;-75
2023/12/14 00:50:48;;;;;;;3.40;2.50;;;16.20;68.80;;;;;;5049246;28;20443;-76
2023/12/14 00:53:17;;;;;;;2.67;2.47;;;16.20;68.60;;;;;;5031588;28;20523;-75
2023/12/14 00:55:46;;;;;;;2.57;2.30;;;16.20;68.80;;;;;;5031889;28;20475;-76
2023/12/14 00:58:14;;;;;;;2.30;2.20;;;16.20;68.60;;;;;;5031885;28;20456;-75
2023/12/14 01:00:42;;;;;;;2.77;2.57;;;16.20;69.20;;;;;;5032449;28;20501;-75
2023/12/14 01:03:10;;;;;;;3.30;2.30;;;16.20;68.60;;;;;;5031315;28;20443;-75
2023/12/14 01:05:38;;;;;;;4.07;2.60;;;16.10;68.80;;;;;;5032014;28;20970;-75
2023/12/14 01:08:06;;;;;;;2.67;2.47;;;16.10;68.60;;;;;;5024381;28;20459;-75
2023/12/14 01:10:34;;;;;;;2.70;2.50;;;16.10;68.60;;;;;;5031857;28;20435;-75
2023/12/14 01:13:04;;;;;;;2.63;2.50;;;16.20;68.70;;;;;;5031936;28;20447;-75
2023/12/14 01:15:31;;;;;;;2.60;2.40;;;16.20;68.60;;;;;;5030641;28;20559;-75
2023/12/14 01:17:59;;;;;;;2.97;2.77;;;16.20;68.70;;;;;;5031758;28;20534;-75
2023/12/14 01:20:27;;;;;;;2.60;2.37;;;16.10;68.40;;;;;;5032859;28;20444;-75
2023/12/14 01:22:55;;;;;;;3.67;2.70;;;16.10;68.50;;;;;;5029393;28;20479;-75
2023/12/14 01:25:24;;;;;;;2.73;2.50;;;16.10;68.70;;;;;;5031867;28;20518;-75
2023/12/14 01:27:51;;;;;;;3.97;2.90;;;16.10;68.60;;;;;;5031675;28;20842;-75
2023/12/14 01:30:21;;;;;;;3.40;3.10;;;16.10;68.60;;;;;;5031848;28;20439;-75
2023/12/14 01:32:49;;;;;;;3.20;2.83;;;16.10;68.50;;;;;;5031007;28;20451;-75
2023/12/14 01:35:17;;;;;;;4.03;2.80;;;16.10;68.50;;;;;;5031395;28;20478;-75
2023/12/14 01:37:45;;;;;;;3.77;3.40;;;16.10;68.60;;;;;;5033376;28;20454;-75
2023/12/14 01:40:13;;;;;;;4.63;3.20;;;16.10;68.80;;;;;;5034395;28;20443;-75
2023/12/14 01:42:41;;;;;;;3.60;3.13;;;16.10;68.60;;;;;;5036893;28;20542;-75
2023/12/14 01:45:10;;;;;;;3.10;2.90;;;16.10;68.50;;;;;;5038420;28;20470;-74
2023/12/14 01:47:40;;;;;;;3.00;2.80;;;16.10;68.40;;;;;;5037790;28;20439;-76
2023/12/14 01:50:08;;;;;;;3.57;2.87;;;16.10;68.60;;;;;;5031178;28;20452;-75
2023/12/14 01:52:36;;;;;;;4.80;3.57;;;16.10;68.70;;;;;;5033518;28;20444;-75
2023/12/14 01:55:05;;;;;;;4.83;3.90;;;16.10;68.60;;;;;;5035495;28;20525;-75
2023/12/14 01:57:33;;;;;;;4.73;3.13;;;16.10;68.50;;;;;;5034038;28;21046;-75
2023/12/14 02:00:01;;;;;;;8.60;5.17;;;16.10;68.60;;;;;;5035162;28;20441;-75
2023/12/14 02:02:29;;;;;;;5.20;3.90;;;16.10;68.60;;;;;;5034879;28;20447;-76
2023/12/14 02:04:58;;;;;;;5.53;4.30;;;16.10;68.20;;;;;;5034975;28;20475;-76
2023/12/14 02:07:26;;;;;;;5.90;4.90;;;16.10;68.40;;;;;;5035076;28;20571;-76
2023/12/14 02:09:55;;;;;;;6.90;5.37;;;16.00;68.50;;;;;;5035186;28;20531;-76
2023/12/14 02:12:23;;;;;;;6.70;5.17;;;16.00;68.40;;;;;;5035087;28;20443;-76
2023/12/14 02:14:51;;;;;;;5.50;4.93;;;16.00;68.60;;;;;;5035014;28;20470;-76
2023/12/14 02:17:19;;;;;;;6.17;4.40;;;16.10;68.50;;;;;;5034258;28;20549;-76
2023/12/14 02:19:47;;;;;;;6.90;5.27;;;16.10;68.80;;;;;;5035100;28;20466;-76
2023/12/14 02:22:17;;;;;;;5.30;4.50;;;16.10;68.70;;;;;;5035208;28;20444;-76
2023/12/14 02:24:46;;;;;;;5.77;4.63;;;16.10;68.70;;;;;;5035011;28;20440;-77
2023/12/14 02:27:14;;;;;;;5.20;4.70;;;16.10;68.70;;;;;;5034153;28;20501;-76
2023/12/14 02:29:42;;;;;;;4.83;4.37;;;16.10;68.50;;;;;;5034801;28;20474;-76
2023/12/14 02:32:10;;;;;;;8.93;4.60;;;16.10;68.70;;;;;;5034829;28;20447;-76
2023/12/14 02:34:39;;;;;;;5.07;4.47;;;16.10;68.80;;;;;;5034811;28;20479;-76
2023/12/14 02:37:08;;;;;;;5.60;4.23;;;16.10;68.80;;;;;;5034095;28;20459;-75
2023/12/14 02:39:36;;;;;;;4.63;4.10;;;16.10;68.80;;;;;;5034596;28;20473;-75
2023/12/14 02:42:05;;;;;;;5.60;4.27;;;16.10;68.90;;;;;;5034895;28;20447;-76
2023/12/14 02:44:33;;;;;;;5.40;4.67;;;16.10;68.80;;;;;;5034759;28;20497;-76
2023/12/14 02:47:01;;;;;;;5.70;4.47;;;16.10;68.90;;;;;;5034417;28;20490;-76
2023/12/14 02:49:29;;;;;;;5.90;4.43;;;16.10;68.80;;;;;;5033285;28;20451;-76
2023/12/14 02:51:57;;;;;;;4.40;4.00;;;16.10;68.50;;;;;;5034568;28;20467;-76
2023/12/14 02:54:25;;;;;;;6.03;4.30;;;16.10;69.00;;;;;;5034595;28;20447;-76
2023/12/14 02:56:53;;;;;;;6.73;3.93;;;16.10;68.70;;;;;;5034036;28;20563;-76
2023/12/14 02:59:22;;;;;;;6.10;4.50;;;16.10;68.50;;;;;;5034356;28;20443;-76
2023/12/14 03:01:51;;;;;;;4.40;4.00;;;16.10;68.50;;;;;;5034511;28;20447;-76
2023/12/14 03:04:19;;;;;;;4.53;4.13;;;16.00;68.80;;;;;;5034239;28;20454;-76
2023/12/14 03:06:47;;;;;;;4.50;4.10;;;16.10;68.80;;;;;;5033953;28;20492;-76
2023/12/14 03:09:15;;;;;;;4.27;3.80;;;16.00;68.70;;;;;;5034483;28;20471;-76
2023/12/14 03:11:43;;;;;;;6.53;4.87;;;16.10;68.70;;;;;;5034326;28;20475;-75
2023/12/14 03:14:11;;;;;;;5.50;4.50;;;16.10;68.60;;;;;;5033549;28;20504;-76
2023/12/14 03:16:40;;;;;;;5.43;4.23;;;16.00;68.40;;;;;;5033538;28;20479;-76
2023/12/14 03:19:08;;;;;;;4.17;3.77;;;16.00;68.60;;;;;;5033790;28;20439;-76
2023/12/14 03:21:36;;;;;;;8.50;4.33;;;16.10;68.60;;;;;;5033778;28;20447;-76
2023/12/14 03:24:04;;;;;;;5.83;4.20;;;16.00;68.40;;;;;;5033799;28;20524;-76
2023/12/14 03:26:32;;;;;;;4.27;3.87;;;16.00;68.60;;;;;;5033190;28;20511;-76
2023/12/14 03:29:00;;;;;;;3.80;3.50;;;16.10;68.70;;;;;;5033839;28;20474;-76
2023/12/14 03:31:28;;;;;;;4.60;4.07;;;16.10;68.50;;;;;;5033857;28;20435;-77
2023/12/14 03:33:57;;;;;;;4.20;3.80;;;16.10;68.60;;;;;;5033346;28;20515;-76
2023/12/14 03:36:26;;;;;;;4.03;3.60;;;16.00;68.30;;;;;;5033066;28;20544;-76
2023/12/14 03:38:54;;;;;;;4.57;3.90;;;16.00;68.60;;;;;;5034404;28;20531;-76
2023/12/14 03:41:21;;;;;;;4.10;3.73;;;16.00;68.60;;;;;;5033712;28;20505;-76
2023/12/14 03:43:49;;;;;;;4.17;3.50;;;16.00;68.40;;;;;;5034057;28;20558;-76
2023/12/14 03:46:17;;;;;;;5.13;3.40;;;16.00;68.60;;;;;;5033164;28;20498;-76
2023/12/14 03:48:45;;;;;;;4.23;3.83;;;16.00;68.80;;;;;;5033498;28;20531;-76
2023/12/14 03:51:15;;;;;;;3.57;3.27;;;16.00;68.60;;;;;;5033461;28;20604;-76
2023/12/14 03:53:43;;;;;;;3.93;3.63;;;16.00;68.50;;;;;;5033178;28;20451;-76
2023/12/14 03:56:11;;;;;;;3.50;3.20;;;16.00;68.60;;;;;;5033009;28;20510;-76
2023/12/14 03:58:39;;;;;;;5.20;3.47;;;16.00;68.70;;;;;;5032767;28;20447;-76
2023/12/14 04:01:07;;;;;;;3.60;3.30;;;16.10;68.90;;;;;;5032555;28;20447;-76
2023/12/14 04:03:36;;;;;;;4.03;3.37;;;16.10;68.70;;;;;;5033690;28;20447;-75
2023/12/14 04:06:04;;;;;;;3.13;2.93;;;16.10;68.60;;;;;;5033264;28;20498;-76
2023/12/14 04:08:34;;;;;;;3.77;3.47;;;16.00;68.60;;;;;;5032802;28;20479;-76
2023/12/14 04:11:02;;;;;;;5.80;3.40;;;16.00;68.80;;;;;;5033332;28;20478;-76
2023/12/14 04:13:30;;;;;;;3.20;3.00;;;16.00;68.60;;;;;;5033073;28;20497;-75
2023/12/14 04:15:59;;;;;;;3.60;3.30;;;16.00;68.60;;;;;;5032789;28;20570;-76
2023/12/14 04:18:27;;;;;;;3.37;3.07;;;16.00;68.90;;;;;;5032325;28;20474;-76
2023/12/14 04:20:55;;;;;;;3.70;3.40;;;16.00;68.70;;;;;;5032946;28;20447;-76
2023/12/14 04:23:23;;;;;;;2.93;2.73;;;16.00;68.50;;;;;;5033009;28;20440;-76
2023/12/14 04:25:52;;;;;;;3.27;2.97;;;16.00;68.80;;;;;;5033029;28;20475;-76
2023/12/14 04:28:20;;;;;;;2.97;2.77;;;16.00;68.80;;;;;;5032062;28;20445;-76
2023/12/14 04:30:48;;;;;;;2.93;2.73;;;16.10;68.80;;;;;;5032748;28;20474;-76
2023/12/14 04:33:16;;;;;;;4.00;3.60;;;16.00;68.40;;;;;;5032835;28;20451;-76
2023/12/14 04:35:42;;;;;;;3.17;2.90;;;16.00;68.60;;;;;;5032219;28;20994;-76
2023/12/14 04:38:10;;;;;;;3.27;3.07;;;16.00;68.70;;;;;;5031970;28;20525;-76
2023/12/14 04:40:38;;;;;;;3.03;2.77;;;16.00;68.80;;;;;;5032651;28;20454;-76
2023/12/14 04:43:11;;;;;;;2.70;2.57;;;16.00;68.60;;;;;;5031337;28;20458;-76
2023/12/14 04:45:39;;;;;;;3.10;2.90;;;16.00;68.50;;;;;;5032414;28;20546;-76
2023/12/14 04:48:08;;;;;;;3.47;3.17;;;16.00;68.80;;;;;;5032132;28;20469;-75
2023/12/14 04:50:36;;;;;;;2.73;2.53;;;16.10;68.60;;;;;;5032667;28;20432;-75
2023/12/14 04:53:04;;;;;;;2.80;2.60;;;16.00;68.60;;;;;;5024899;28;20455;-75
2023/12/14 04:55:32;;;;;;;2.60;2.40;;;16.00;68.80;;;;;;5034707;28;20477;-76
2023/12/14 04:58:01;;;;;;;3.20;2.90;;;16.00;68.70;;;;;;5035128;28;20444;-75
2023/12/14 05:00:30;;;;;;;3.10;2.80;;;16.00;68.70;;;;;;5035067;28;20542;-75
2023/12/14 05:02:58;;;;;;;2.90;2.70;;;16.10;68.70;;;;;;5033009;28;20538;-75
2023/12/14 05:05:26;;;;;;;2.87;2.67;;;16.00;68.30;;;;;;5032596;28;20454;-75
2023/12/14 05:07:54;;;;;;;2.73;2.60;;;16.00;68.60;;;;;;5031591;28;20447;-75
2023/12/14 05:10:22;;;;;;;2.60;2.50;;;16.00;68.50;;;;;;5031819;28;20448;-75
2023/12/14 05:12:50;;;;;;;2.83;2.63;;;16.00;68.50;;;;;;5028984;28;20523;-75
2023/12/14 05:15:18;;;;;;;2.50;2.30;;;16.00;68.70;;;;;;5034534;28;20556;-76
2023/12/14 05:17:48;;;;;;;2.37;2.27;;;16.00;68.70;;;;;;5040544;28;20562;-76
2023/12/14 05:20:16;;;;;;;2.93;2.73;;;16.00;68.40;;;;;;5025399;28;20496;-76
2023/12/14 05:22:44;;;;;;;2.93;2.73;;;16.00;68.70;;;;;;5038455;28;20466;-76
2023/12/14 05:25:12;;;;;;;2.60;2.40;;;16.00;68.70;;;;;;5036148;28;20442;-76
2023/12/14 05:27:40;;;;;;;2.60;2.50;;;16.00;68.50;;;;;;5042579;28;20518;-76
2023/12/14 05:30:09;;;;;;;2.40;2.30;;;16.00;68.60;;;;;;5043225;28;20492;-76
2023/12/14 05:32:37;;;;;;;2.43;2.27;;;16.00;68.60;;;;;;5043254;28;20450;-76
2023/12/14 05:35:09;;;;;;;2.07;1.87;;;16.00;68.50;;;;;;5040128;28;20435;-76
2023/12/14 05:37:39;;;;;;;2.73;2.53;;;16.00;68.70;;;;;;5043410;28;20505;-76
2023/12/14 05:40:08;;;;;;;2.70;2.60;;;16.00;68.70;;;;;;5051661;28;20457;-76
2023/12/14 05:42:37;;;;;;;2.20;2.10;;;16.00;68.50;;;;;;5043490;28;20505;-76
2023/12/14 05:45:06;;;;;;;3.10;2.33;;;16.00;68.80;;;;;;5015001;28;20448;-78
2023/12/14 05:47:41;;;;;;;2.30;2.10;;;16.00;68.60;;;;;;5044816;28;20847;-75
2023/12/14 05:50:12;;;;;;;2.57;2.37;;;16.00;68.70;;;;;;5050044;28;20427;-75
2023/12/14 05:52:41;;;;;;;2.63;2.43;;;16.00;68.60;;;;;;5047729;28;20454;-75
2023/12/14 05:55:10;;;;;;;2.20;2.10;;;16.00;69.40;;;;;;5038563;28;20458;-75
2023/12/14 05:57:38;;;;;;;2.40;2.20;;;16.00;68.70;;;;;;5050789;28;20524;-76
2023/12/14 06:00:08;;;;;;;2.40;2.30;;;16.00;68.30;;;;;;5033453;28;20519;-76
2023/12/14 06:02:36;;;;;;;2.23;2.13;;;16.00;68.70;;;;;;5050298;28;20450;-76
2023/12/14 06:05:07;;;;;;;3.00;2.80;;;16.00;68.40;;;;;;5031782;28;20436;-75
2023/12/14 06:07:37;;;;;;;3.33;2.77;;;16.00;69.30;;;;;;5047407;28;20456;-76
2023/12/14 06:10:06;;;;;;;2.40;2.30;;;16.00;68.90;;;;;;5035094;28;20466;-75
2023/12/14 06:12:34;;;;;;;1.83;1.73;;;16.00;68.70;;;;;;5047165;28;20442;-76
2023/12/14 06:15:02;;;;;;;2.83;2.53;;;16.00;68.70;;;;;;5040832;28;20431;-76
2023/12/14 06:17:31;;;;;;;2.23;2.07;;;16.00;68.60;;;;;;5034353;28;20561;-76
2023/12/14 06:20:00;;;;;;;2.10;2.00;;;16.00;68.90;;;;;;5049795;28;20438;-75
2023/12/14 06:22:27;;;;;;;2.37;2.23;;;16.00;68.60;;;;;;5043434;28;20462;-75
2023/12/14 06:24:57;;;;;;;2.23;2.03;;;16.00;68.70;;;;;;5036367;28;20439;-76
2023/12/14 06:27:26;;;;;;;2.30;2.20;;;16.00;68.50;;;;;;5034719;28;20463;-76
2023/12/14 06:29:54;;;;;;;2.37;2.27;;;16.00;68.50;;;;;;5044845;28;20461;-76
2023/12/14 06:32:22;;;;;;;2.40;2.20;;;16.00;68.30;;;;;;5048578;28;20502;-76
2023/12/14 06:34:49;;;;;;;2.13;2.00;;;16.00;68.80;;;;;;5046015;28;20470;-76
2023/12/14 06:37:18;;;;;;;2.60;2.40;;;16.00;68.70;;;;;;5054279;28;20482;-76
2023/12/14 06:39:46;;;;;;;2.33;2.13;;;16.00;68.40;;;;;;5041224;28;20531;-76
2023/12/14 06:42:15;;;;;;;2.63;2.43;;;16.00;68.40;;;;;;5034620;28;20435;-76
2023/12/14 06:44:43;;;;;;;3.00;2.67;;;16.00;68.40;;;;;;5033008;28;20493;-76
2023/12/14 06:47:11;;;;;;;2.90;2.47;;;16.00;68.60;;;;;;5033982;28;20555;-76
2023/12/14 06:49:40;;;;;;;2.60;2.20;;;16.00;68.50;;;;;;5034522;28;20527;-76
2023/12/14 06:52:09;;;;;;;2.23;2.13;;;16.00;68.60;;;;;;5034116;28;20448;-75
2023/12/14 06:54:37;;;;;;;4.47;2.83;;;15.90;68.50;;;;;;5033937;28;20431;-75
2023/12/14 06:57:05;;;;;;;2.23;2.10;;;16.00;68.20;;;;;;5033843;28;20495;-75
2023/12/14 06:59:34;;;;;;;2.40;2.20;;;15.90;68.50;;;;;;5033913;28;20447;-75
2023/12/14 07:02:02;;;;;;;2.20;2.00;;;16.00;68.50;;;;;;5034345;28;20447;-77
2023/12/14 07:04:31;;;;;;;2.37;2.27;;;16.00;68.60;;;;;;5034536;28;20443;-76
2023/12/14 07:06:59;;;;;;;2.50;2.40;;;16.00;68.50;;;;;;5033879;28;20459;-75
2023/12/14 07:09:28;;;;;;;2.20;2.10;;;16.00;68.60;;;;;;5034156;28;20478;-76
2023/12/14 07:11:56;;;;;;;2.20;2.10;;;16.00;68.60;;;;;;5034577;28;20440;-76
2023/12/14 07:14:24;;;;;;;2.30;2.20;;;15.90;68.30;;;;;;5034535;28;20451;-76
2023/12/14 07:16:54;;;;;;;2.10;2.00;;;15.90;68.20;;;;;;5033006;28;20467;-76
2023/12/14 07:19:22;;;;;;;3.40;2.40;;;15.90;68.60;;;;;;5033680;28;20804;-76
2023/12/14 07:21:50;;;;;;;2.60;2.40;;;16.00;68.50;;;;;;5034131;28;20486;-76
2023/12/14 07:24:18;;;;;;;2.30;2.17;;;15.90;68.30;;;;;;5033878;28;20482;-76
2023/12/14 07:26:47;;;;;;;2.60;2.40;;;15.90;68.40;;;;;;5032971;28;20517;-77
2023/12/14 07:29:15;;;;;;;4.13;2.27;;;15.90;68.40;;;;;;5033588;28;20447;-77
2023/12/14 07:31:43;;;;;;;2.47;2.27;;;15.90;68.30;;;;;;5028276;28;20435;-77
2023/12/14 07:34:13;;;;;;;2.80;2.60;;;15.90;68.30;;;;;;5032998;28;20455;-77
2023/12/14 07:36:41;;;;;;;5.97;2.90;;;15.90;68.10;;;;;;5032929;28;20470;-76
2023/12/14 07:39:09;;;;;;;2.77;2.43;;;15.90;68.00;;;;;;5029939;28;20476;-78
2023/12/14 07:41:37;;;;;;;3.13;2.80;;;15.90;67.90;;;;;;5025402;28;20951;-76
2023/12/14 07:44:05;;;;;;;2.97;2.77;;;15.90;67.80;;;;;;5021348;28;20500;-76
2023/12/14 07:46:34;;;;;;;2.90;2.70;;;15.90;67.60;;;;;;5033158;28;20463;-76
2023/12/14 07:49:03;;;;;;;3.37;3.07;;;15.90;67.50;;;;;;5032700;28;20435;-76
2023/12/14 07:51:33;;;;;;;3.67;3.37;;;15.90;67.60;;;;;;5032310;28;20446;-77
2023/12/14 07:54:03;;;;;;;5.27;3.23;;;15.90;67.40;;;;;;5033200;28;20463;-76
2023/12/14 07:56:33;;;;;;;5.17;3.60;;;15.90;67.50;;;;;;5033590;28;20456;-75
2023/12/14 07:59:00;;;;;;;3.70;3.30;;;15.90;67.30;;;;;;5034358;28;20507;-77
2023/12/14 08:01:28;;;;;;;4.47;3.30;;;15.80;67.30;;;;;;5034405;28;20848;-77
2023/12/14 08:03:57;;;;;;;4.47;3.60;;;15.80;67.10;;;;;;5033767;28;20524;-77
2023/12/14 08:06:25;;;;;;;3.73;3.37;;;15.80;67.30;;;;;;5032499;28;20467;-77
2023/12/14 08:08:54;;;;;;;2.83;2.63;;;15.80;67.10;;;;;;5034693;28;20439;-77
2023/12/14 08:11:22;;;;;;;3.13;2.93;;;15.90;67.10;;;;;;5056156;28;20469;-78
2023/12/14 08:13:50;;;;;;;3.27;2.97;;;15.90;66.90;;;;;;5038271;28;20432;-78
2023/12/14 08:16:18;;;;;;;3.53;3.23;;;15.80;67.20;;;;;;5038378;28;20448;-77
2023/12/14 08:18:48;;;;;;;3.40;3.10;;;15.80;67.00;;;;;;5036206;28;20510;-77
2023/12/14 08:21:16;;;;;;;3.73;2.90;;;15.90;67.10;;;;;;5041732;28;20442;-79
2023/12/14 08:23:43;;;;;;;3.10;2.90;;;15.80;67.00;;;;;;5042341;28;20440;-79
2023/12/14 08:26:13;;;;;;;3.47;3.17;;;15.80;66.90;;;;;;5036184;28;21051;-77
2023/12/14 08:28:42;;;;;;;3.47;3.20;;;15.80;67.00;;;;;;5034033;28;20471;-77
2023/12/14 08:31:11;;;;;;;3.53;3.23;;;15.80;66.80;;;;;;5035096;28;20450;-77
2023/12/14 08:33:42;;;;;;;3.70;2.90;;;15.80;66.90;;;;;;5033223;28;20435;-76
2023/12/14 08:36:14;;;;;;;3.23;3.00;;;15.80;67.00;;;;;;5032624;28;20452;-77
2023/12/14 08:38:42;;;;;;;3.40;2.90;;;15.90;67.00;;;;;;5032630;28;20475;-77
2023/12/14 08:41:14;;;;;;;4.93;3.30;;;15.80;66.80;;;;;;5038662;28;20447;-77
2023/12/14 08:43:43;;;;;;;3.70;2.93;;;15.80;66.90;;;;;;5031791;28;20450;-77
2023/12/14 08:46:11;;;;;;;4.53;3.50;;;15.90;67.20;;;;;;5033526;28;20448;-77
2023/12/14 08:48:39;;;;;;;3.70;3.27;;;15.90;66.90;;;;;;5035144;28;20436;-77
2023/12/14 08:51:07;;;;;;;4.07;3.50;;;15.90;66.80;;;;;;5036917;28;20984;-78
2023/12/14 08:53:35;;;;;;;3.10;2.80;;;15.90;67.00;;;;;;5035605;28;20470;-78
2023/12/14 08:56:03;;;;;;;4.70;3.00;;;15.90;66.90;;;;;;5036247;28;20486;-77
2023/12/14 08:58:33;;;;;;;4.87;3.40;;;15.90;66.80;;;;;;5032459;28;20463;-79
2023/12/14 09:01:00;;;;;;;3.93;3.53;;;15.90;66.80;;;;;;5032844;28;20440;-78
2023/12/14 09:03:28;;;;;;;3.37;3.03;;;15.90;66.90;;;;;;5032865;28;20432;-77
2023/12/14 09:05:58;;;;;;;3.33;3.13;;;15.90;66.70;;;;;;5031821;28;20651;-77
2023/12/14 09:08:26;;;;;;;4.20;3.30;;;15.90;66.60;;;;;;5032486;28;20511;-77
2023/12/14 09:10:54;;;;;;;3.57;3.27;;;15.90;66.60;;;;;;5034052;28;20439;-77
2023/12/14 09:13:22;;;;;;;3.60;3.30;;;15.90;66.60;;;;;;5033228;28;21010;-77
2023/12/14 09:15:53;;;;;;;3.60;3.30;;;15.90;66.50;;;;;;5032058;28;20455;-77
2023/12/14 09:18:22;;;;;;;3.33;3.03;;;15.90;66.80;;;;;;5033056;28;20501;-77
2023/12/14 09:20:50;;;;;;;3.20;2.90;;;15.90;67.00;;;;;;5035616;28;20448;-77
2023/12/14 09:23:18;;;;;;;3.93;3.30;;;15.90;66.70;;;;;;5034865;28;20474;-77
2023/12/14 09:25:47;;;;;;;3.70;3.40;;;15.90;66.60;;;;;;5034170;28;20475;-77
2023/12/14 09:28:15;;;;;;;3.10;2.87;;;15.90;66.90;;;;;;5032262;28;20451;-77
2023/12/14 09:30:44;;;;;;;3.50;3.20;;;15.90;66.60;;;;;;5033165;28;20511;-77
2023/12/14 09:33:13;;;;;;;4.33;3.70;;;15.90;66.90;;;;;;5034868;28;20439;-77
2023/12/14 09:35:42;;;;;;;4.03;3.20;;;15.90;66.60;;;;;;5035053;28;20471;-77
2023/12/14 09:38:13;;;;;;;3.40;3.10;;;15.90;66.80;;;;;;5031678;28;20451;-78
2023/12/14 09:40:41;;;;;;;3.50;3.20;;;15.90;66.80;;;;;;5035036;28;20451;-78
2023/12/14 09:43:09;;;;;;;3.67;3.37;;;15.90;66.70;;;;;;5034058;28;20478;-77
2023/12/14 09:45:38;;;;;;;6.10;3.80;;;15.90;66.70;;;;;;5035589;28;20508;-77
2023/12/14 09:48:06;;;;;;;3.10;2.87;;;16.00;66.90;;;;;;5032073;28;20486;-77
2023/12/14 09:50:36;;;;;;;3.37;3.10;;;16.00;66.90;;;;;;5034976;28;20450;-78
2023/12/14 09:53:04;;;;;;;3.43;3.13;;;16.00;67.10;;;;;;5025751;28;20475;-78
2023/12/14 09:55:32;;;;;;;3.10;2.80;;;16.00;67.10;;;;;;5031436;28;20494;-77
2023/12/14 09:58:02;;;;;;;4.17;3.27;;;16.00;67.00;;;;;;5031501;28;20538;-77
2023/12/14 10:00:34;;;;;;;3.27;3.07;;;16.00;67.20;;;;;;5032655;28;20447;-77
2023/12/14 10:03:21;;;;;;;3.40;3.20;;;16.00;67.40;;;;;;5034992;28;20447;-77
2023/12/14 10:05:51;;;;;;;3.63;3.30;;;16.00;67.40;;;;;;5035615;28;20505;-78
2023/12/14 10:08:20;;;;;;;5.50;3.13;;;16.00;67.30;;;;;;5034133;28;20447;-77
2023/12/14 10:10:51;;;;;;;3.60;3.30;;;16.10;67.30;;;;;;5034059;28;20447;-76
2023/12/14 10:13:19;;;;;;;3.37;2.87;;;16.10;67.50;;;;;;5033862;28;21012;-76
2023/12/14 10:15:48;;;;;;;4.30;3.07;;;16.00;67.70;;;;;;5033347;28;20491;-76
2023/12/14 10:18:22;;;;;;;3.03;2.80;;;16.10;67.50;;;;;;5033296;28;20439;-77
2023/12/14 10:20:52;;;;;;;3.37;2.90;;;16.10;67.70;;;;;;5034054;28;20473;-78
2023/12/14 10:23:21;;;;;;;3.10;2.87;;;16.10;67.60;;;;;;5034182;28;20449;-77
2023/12/14 10:25:49;;;;;;;3.63;3.33;;;16.10;67.70;;;;;;5034186;28;20506;-78
2023/12/14 10:28:18;;;;;;;4.00;3.00;;;16.10;67.30;;;;;;5033737;28;20451;-77
2023/12/14 10:30:46;;;;;;;3.87;3.03;;;16.10;67.80;;;;;;5033991;28;20451;-76
2023/12/14 10:33:16;;;;;;;4.17;3.37;;;16.10;67.60;;;;;;5033585;28;20435;-76
2023/12/14 10:35:46;;;;;;;3.30;3.00;;;16.20;67.90;;;;;;5033756;28;20459;-77
2023/12/14 10:38:16;;;;;;;2.93;2.40;;;16.10;67.60;;;;;;5032591;28;20930;-77
2023/12/14 10:40:44;;;;;;;3.90;2.90;;;16.10;67.80;;;;;;5033037;28;20562;-77
2023/12/14 10:43:12;;;;;;;4.87;3.10;;;16.20;67.90;;;;;;5033139;28;20447;-77
2023/12/14 10:45:44;;;;;;;5.70;3.47;;;16.20;67.80;;;;;;5032991;28;20459;-76
2023/12/14 10:48:13;;;;;;;3.03;2.73;;;16.20;68.70;;;;;;5032699;28;20439;-77
2023/12/14 10:50:43;;;;;;;3.00;2.83;;;16.20;68.10;;;;;;5033253;28;20439;-76
2023/12/14 10:53:11;;;;;;;3.30;3.00;;;16.20;67.90;;;;;;5033810;28;20439;-78
2023/12/14 10:55:42;;;;;;;3.50;3.20;;;16.30;68.00;;;;;;5035257;28;20468;-79
2023/12/14 10:58:10;;;;;;;5.27;3.30;;;16.30;68.00;;;;;;5034939;28;20439;-77
2023/12/14 11:00:38;;;;;;;2.80;2.60;;;16.30;68.10;;;;;;5034703;28;20621;-78
2023/12/14 11:03:06;;;;;;;3.07;2.70;;;16.40;68.20;;;;;;5035455;28;20455;-78
2023/12/14 11:05:36;;;;;;;3.33;2.90;;;16.40;68.10;;;;;;5035117;28;20455;-77
2023/12/14 11:08:09;;;;;;;2.80;2.60;;;16.40;67.90;;;;;;5033843;28;20470;-78
2023/12/14 11:10:41;;;;;;;3.60;2.90;;;16.40;68.00;;;;;;5033183;28;20470;-78
2023/12/14 11:13:12;;;;;;;3.40;3.10;;;16.50;67.90;;;;;;5029869;28;20543;-76
2023/12/14 11:15:41;;;;;;;4.93;3.27;;;16.50;67.90;;;;;;5032597;28;20467;-79
2023/12/14 11:18:25;;;;;;;3.53;3.00;;;16.50;68.10;;;;;;5034433;28;20439;-78
2023/12/14 11:20:57;;;;;;;3.23;2.93;;;16.50;68.20;;;;;;5043528;28;20474;-78
2023/12/14 11:23:33;;;;;;;3.27;2.70;;;16.60;68.10;;;;;;5054774;28;20455;-79
2023/12/14 11:26:04;;;;;;;2.90;2.70;;;16.50;68.10;;;;;;5051182;28;20474;-77
2023/12/14 11:28:35;;;;;;;3.30;2.70;;;16.60;68.40;;;;;;5049607;28;20447;-77
2023/12/14 11:31:06;;;;;;;3.73;2.83;;;16.60;68.20;;;;;;5047964;28;20442;-77
2023/12/14 11:33:34;;;;;;;3.03;2.77;;;16.60;68.20;;;;;;5043334;28;20538;-77
2023/12/14 11:36:11;;;;;;;4.07;2.77;;;16.60;68.40;;;;;;5050530;28;20472;-78
2023/12/14 11:38:39;;;;;;;3.10;2.90;;;16.70;68.20;;;;;;5043504;28;20458;-78
2023/12/14 11:41:09;;;;;;;3.00;2.70;;;16.80;68.40;;;;;;5039828;28;20467;-77
2023/12/14 11:43:41;;;;;;;2.60;2.40;;;16.80;68.20;;;;;;5055819;28;20451;-78
2023/12/14 11:46:10;;;;;;;2.87;2.63;;;16.90;68.20;;;;;;5046793;28;20462;-78
2023/12/14 11:48:38;;;;;;;3.00;2.67;;;16.90;68.20;;;;;;5047770;28;20443;-78
2023/12/14 11:51:06;;;;;;;4.80;2.93;;;16.90;68.00;;;;;;5046359;28;20451;-78
2023/12/14 11:53:38;;;;;;;3.53;3.23;;;17.00;68.00;;;;;;5052827;28;20434;-78
2023/12/14 11:56:07;;;;;;;2.90;2.73;;;17.00;68.00;;;;;;5039375;28;20580;-78
2023/12/14 11:58:36;;;;;;;5.40;3.80;;;17.00;68.00;;;;;;5053244;28;20450;-79
2023/12/14 12:01:15;;;;;;;4.63;4.23;;;17.10;68.00;;;;;;5052875;28;20474;-79
2023/12/14 12:03:44;;;;;;;4.67;4.20;;;17.10;68.00;;;;;;5042111;28;20925;-80
2023/12/14 12:06:20;;;;;;;7.80;5.20;;;17.10;68.60;;;;;;5052621;28;20496;-79
2023/12/14 12:08:49;;;;;;;5.80;4.90;;;17.10;67.90;;;;;;5047248;28;20462;-80
2023/12/14 12:11:18;;;;;;;7.57;5.47;;;17.10;67.90;;;;;;5046588;28;20439;-78
2023/12/14 12:13:52;;;;;;;7.77;5.80;;;17.10;67.90;;;;;;5047307;28;20502;-79
2023/12/14 12:16:21;;;;;;;8.20;6.37;;;17.20;68.20;;;;;;5029178;28;20501;-79
2023/12/14 12:18:50;;;;;;;7.63;6.77;;;17.20;68.20;;;;;;5031972;28;20444;-78
2023/12/14 12:21:19;;;;;;;9.07;7.10;;;17.30;68.40;;;;;;5048312;28;20477;-77
2023/12/14 12:23:47;;;;;;;8.47;6.80;;;17.40;68.40;;;;;;5043367;28;20446;-78
2023/12/14 12:26:16;;;;;;;10.43;7.40;;;17.60;68.70;;;;;;5052901;28;20470;-78
2023/12/14 12:28:44;;;;;;;8.30;7.00;;;18.00;69.20;;;;;;5046205;28;20442;-77
2023/12/14 12:31:14;;;;;;;12.37;9.43;;;18.40;69.30;;;;;;5037083;28;20448;-77
2023/12/14 12:33:42;;;;;;;12.53;8.87;;;18.80;68.10;;;;;;5035374;28;20517;-77
2023/12/14 12:36:11;;;;;;;10.80;8.87;;;18.90;67.50;;;;;;5048288;28;20463;-78
2023/12/14 12:38:40;;;;;;;13.40;9.83;;;18.90;66.90;;;;;;5044838;28;20469;-78
2023/12/14 12:41:08;;;;;;;12.37;9.53;;;18.90;67.00;;;;;;5046212;28;20481;-78
2023/12/14 12:43:37;;;;;;;12.33;9.40;;;18.80;67.20;;;;;;5054184;28;20504;-78
2023/12/14 12:46:05;;;;;;;13.33;9.03;;;18.80;67.40;;;;;;5049996;28;20473;-78
2023/12/14 12:48:36;;;;;;;16.87;9.13;;;18.70;67.40;;;;;;5048032;28;20446;-78
2023/12/14 12:51:05;;;;;;;11.00;9.30;;;18.60;67.60;;;;;;5049896;28;20442;-78
2023/12/14 12:53:33;;;;;;;13.33;9.50;;;18.50;68.00;;;;;;5052883;28;20467;-78